Weather at Southampton Airport

Public forecast

Using degrees Celsius for public forecast. Weather courtesy of forecast.io.

Current aviation weather report (METAR) for Southampton Airport

Report is more than 6 hours old.

2022/11/14 15:20 (retrieved 2 years ago)

EGHI 141520Z 00000KT 9999 FEW020 SCT024 15/12 Q1006

Closest aviation forecast (TAF) to Southampton Airport

Forecast is more than 12 hours old.

Closest forecast is RAF Odiham, 23.1 nm (42.8 km) NE.

2023/02/22 21:48 (retrieved 1 year ago)

TAF TAF EGVO 221943Z 2221/2309 33006KT 9999 FEW020 BECMG 2222/2301 BKN010 PROB30 TEMPO 2301/2307 4000 -RADZ SCT004